createdAt,value
2023-03-26T00:01:29.697Z,14.98
2023-03-26T00:03:58.028Z,13.52
2023-03-26T00:06:31.301Z,11.95
2023-03-26T00:08:58.497Z,14.05
2023-03-26T00:11:27.447Z,12.73
2023-03-26T00:13:57.750Z,12.95
2023-03-26T00:16:28.845Z,12.52
2023-03-26T00:18:57.520Z,11.65
2023-03-26T00:21:28.200Z,12.50
2023-03-26T00:23:58.480Z,14.35
2023-03-26T00:26:27.108Z,14.50
2023-03-26T00:28:54.521Z,16.20
2023-03-26T00:31:22.292Z,17.10
2023-03-26T00:33:54.289Z,15.98
2023-03-26T00:36:25.376Z,13.93
2023-03-26T00:38:53.924Z,14.70
2023-03-26T00:41:25.878Z,14.55
2023-03-26T00:43:58.815Z,15.93
2023-03-26T00:46:28.497Z,16.00
2023-03-26T00:48:58.864Z,17.85
2023-03-26T00:51:27.713Z,18.23
2023-03-26T00:53:55.778Z,17.13
2023-03-26T00:56:23.223Z,16.50
2023-03-26T00:58:50.420Z,16.70
2023-03-26T01:01:27.292Z,16.83
2023-03-26T01:04:08.295Z,16.55
2023-03-26T01:06:42.327Z,15.63
2023-03-26T01:09:21.511Z,15.85
2023-03-26T01:11:49.865Z,14.98
2023-03-26T01:14:25.309Z,15.57
2023-03-26T01:16:58.426Z,14.90
2023-03-26T01:19:38.206Z,14.95
2023-03-26T01:22:09.606Z,16.10
2023-03-26T01:24:37.870Z,17.55
2023-03-26T01:27:09.560Z,17.23
2023-03-26T01:29:42.880Z,15.70
2023-03-26T01:32:17.684Z,15.07
2023-03-26T01:35:19.075Z,15.98
2023-03-26T01:38:18.495Z,14.80
2023-03-26T01:40:54.762Z,16.05
2023-03-26T01:43:44.391Z,16.48
2023-03-26T01:46:14.691Z,16.10
2023-03-26T01:48:46.823Z,15.75
2023-03-26T01:51:25.120Z,14.48
2023-03-26T01:53:53.410Z,16.38
2023-03-26T01:56:35.915Z,16.45
2023-03-26T01:59:21.339Z,15.05
2023-03-26T02:02:11.735Z,16.30
2023-03-26T02:05:00.336Z,14.68
2023-03-26T02:07:52.963Z,14.45
2023-03-26T02:10:29.702Z,15.43
2023-03-26T02:12:59.014Z,15.98
2023-03-26T02:15:26.245Z,15.57
2023-03-26T02:17:54.077Z,15.70
2023-03-26T02:20:21.654Z,14.02
2023-03-26T02:22:48.957Z,15.77
2023-03-26T02:25:21.245Z,16.42
2023-03-26T02:27:52.431Z,15.15
2023-03-26T02:30:26.049Z,15.95
2023-03-26T02:32:59.246Z,17.13
2023-03-26T02:35:31.398Z,19.20
2023-03-26T02:38:01.160Z,17.50
2023-03-26T02:40:28.558Z,15.80
2023-03-26T02:42:56.397Z,17.63
2023-03-26T02:45:24.333Z,17.20
2023-03-26T02:48:09.971Z,16.88
2023-03-26T02:51:03.060Z,16.30
2023-03-26T02:53:41.995Z,18.00
2023-03-26T02:56:35.315Z,16.17
2023-03-26T02:59:25.307Z,13.95
2023-03-26T03:02:13.403Z,16.45
2023-03-26T03:04:41.058Z,16.85
2023-03-26T03:07:08.222Z,17.02
2023-03-26T03:09:35.518Z,16.80
2023-03-26T03:12:25.283Z,17.75
2023-03-26T03:14:52.553Z,17.30
2023-03-26T03:17:20.891Z,14.65
2023-03-26T03:19:48.203Z,14.25
2023-03-26T03:22:16.244Z,16.02
2023-03-26T03:24:43.793Z,13.55
2023-03-26T03:27:10.960Z,14.60
2023-03-26T03:29:42.824Z,15.65
2023-03-26T03:32:28.478Z,16.63
2023-03-26T03:35:00.402Z,17.05
2023-03-26T03:37:27.696Z,16.80
2023-03-26T03:39:56.220Z,15.93
2023-03-26T03:42:27.405Z,16.05
2023-03-26T03:44:57.224Z,16.42
2023-03-26T03:47:43.054Z,16.73
2023-03-26T03:50:11.794Z,17.88
2023-03-26T03:52:47.313Z,17.55
2023-03-26T03:55:17.292Z,17.38
2023-03-26T03:57:52.456Z,17.38
2023-03-26T04:00:22.587Z,16.80
2023-03-26T04:03:06.489Z,17.48
2023-03-26T04:05:34.593Z,17.10
2023-03-26T04:08:01.903Z,19.48
2023-03-26T04:10:28.933Z,16.55
2023-03-26T04:13:05.286Z,17.42
2023-03-26T04:15:48.535Z,17.77
2023-03-26T04:18:15.820Z,17.02
2023-03-26T04:20:49.324Z,16.73
2023-03-26T04:23:23.213Z,18.05
2023-03-26T04:26:03.397Z,19.23
2023-03-26T04:28:54.721Z,17.05
2023-03-26T04:31:30.769Z,18.35
2023-03-26T04:34:06.220Z,16.75
2023-03-26T04:36:40.646Z,17.42
2023-03-26T04:39:11.697Z,18.08
2023-03-26T04:42:14.313Z,16.38
2023-03-26T04:44:55.854Z,16.77
2023-03-26T04:47:23.534Z,16.40
2023-03-26T04:49:50.926Z,19.33
2023-03-26T04:52:18.761Z,17.15
2023-03-26T04:54:58.350Z,16.25
2023-03-26T04:57:32.624Z,17.15
2023-03-26T05:00:19.561Z,16.48
2023-03-26T05:02:57.817Z,16.13
2023-03-26T05:05:26.960Z,17.90
2023-03-26T05:07:55.267Z,17.90
2023-03-26T05:10:23.832Z,17.35
2023-03-26T05:12:56.391Z,16.07
2023-03-26T05:15:27.211Z,16.42
2023-03-26T05:17:55.522Z,14.20
2023-03-26T05:20:34.311Z,15.02
2023-03-26T05:23:03.288Z,14.55
2023-03-26T05:25:34.802Z,13.63
2023-03-26T05:28:03.772Z,14.63
2023-03-26T05:30:38.906Z,14.27
2023-03-26T05:33:06.626Z,13.82
2023-03-26T05:35:45.275Z,13.80
2023-03-26T05:38:12.837Z,14.23
2023-03-26T05:40:39.970Z,15.15
2023-03-26T05:43:08.252Z,13.70
2023-03-26T05:45:35.313Z,14.23
2023-03-26T05:48:15.646Z,15.45
2023-03-26T05:50:42.983Z,14.52
2023-03-26T05:53:10.258Z,14.05
2023-03-26T05:55:59.351Z,13.02
2023-03-26T05:58:45.002Z,13.20
2023-03-26T06:01:44.615Z,13.02
2023-03-26T06:04:16.147Z,14.02
2023-03-26T06:06:57.729Z,16.95
2023-03-26T06:09:25.828Z,13.73
2023-03-26T06:11:52.987Z,14.35
2023-03-26T06:14:20.767Z,13.93
2023-03-26T06:17:15.392Z,14.48
2023-03-26T06:20:00.982Z,15.80
2023-03-26T06:22:40.458Z,14.05
2023-03-26T06:25:19.289Z,13.70
2023-03-26T06:28:16.262Z,13.75
2023-03-26T06:30:49.676Z,12.90
2023-03-26T06:33:30.450Z,15.68
2023-03-26T06:35:59.646Z,17.52
2023-03-26T06:38:27.031Z,15.48
2023-03-26T06:40:54.793Z,14.30
2023-03-26T06:43:25.394Z,14.70
2023-03-26T06:46:21.352Z,14.48
2023-03-26T06:49:07.099Z,14.63
2023-03-26T06:51:53.452Z,14.73
2023-03-26T06:54:39.150Z,14.88
2023-03-26T06:57:48.697Z,14.13
2023-03-26T07:00:42.315Z,13.38
2023-03-26T07:03:38.978Z,13.05
2023-03-26T07:06:24.886Z,12.50
2023-03-26T07:09:12.026Z,14.20
2023-03-26T07:11:59.167Z,13.25
2023-03-26T07:14:44.935Z,12.25
2023-03-26T07:17:35.173Z,11.68
2023-03-26T07:20:13.211Z,12.95
2023-03-26T07:22:42.071Z,11.90
2023-03-26T07:25:28.059Z,13.05
2023-03-26T07:28:32.834Z,12.70
2023-03-26T07:31:46.081Z,11.93
2023-03-26T07:35:03.298Z,13.93
2023-03-26T07:37:57.103Z,12.93
2023-03-26T07:40:54.956Z,12.30
2023-03-26T07:43:52.012Z,13.80
2023-03-26T07:46:34.858Z,13.30
2023-03-26T07:49:21.840Z,13.55
2023-03-26T07:52:25.932Z,12.90
2023-03-26T07:55:14.981Z,13.65
2023-03-26T07:58:18.977Z,12.68
2023-03-26T08:04:23.574Z,12.02
2023-03-26T08:07:45.124Z,13.50
2023-03-26T08:10:23.216Z,12.43
2023-03-26T08:13:28.071Z,11.90
2023-03-26T08:16:01.360Z,10.65
2023-03-26T08:18:50.196Z,12.40
2023-03-26T08:21:34.863Z,11.35
2023-03-26T08:24:34.231Z,10.70
2023-03-26T08:27:13.456Z,10.85
2023-03-26T08:29:45.149Z,9.68
2023-03-26T08:32:19.038Z,10.25
2023-03-26T08:34:46.779Z,10.75
2023-03-26T08:37:14.644Z,10.38
2023-03-26T08:39:42.363Z,11.02
2023-03-26T08:42:21.305Z,10.27
2023-03-26T08:45:30.015Z,10.98
2023-03-26T08:48:06.637Z,12.15
2023-03-26T08:50:46.304Z,9.70
2023-03-26T08:53:13.637Z,10.07
2023-03-26T08:56:01.592Z,9.98
2023-03-26T08:58:50.638Z,12.75
2023-03-26T09:01:20.526Z,9.38
2023-03-26T09:04:24.648Z,8.90
2023-03-26T09:07:06.837Z,8.20
2023-03-26T09:10:02.867Z,8.48
2023-03-26T09:12:51.351Z,8.73
2023-03-26T09:15:42.366Z,8.00
2023-03-26T09:18:18.526Z,7.15
2023-03-26T09:20:54.767Z,8.90
2023-03-26T09:23:36.406Z,6.57
2023-03-26T09:26:26.120Z,7.15
2023-03-26T09:29:14.941Z,7.78
2023-03-26T09:32:17.025Z,7.00
2023-03-26T09:34:50.086Z,6.00
2023-03-26T09:37:56.891Z,6.18
2023-03-26T09:41:05.484Z,8.00
2023-03-26T09:43:36.746Z,6.55
2023-03-26T09:46:35.975Z,6.50
2023-03-26T09:49:26.924Z,5.30
2023-03-26T09:52:13.593Z,5.18
2023-03-26T09:54:49.990Z,5.75
2023-03-26T09:57:45.217Z,5.30
2023-03-26T10:00:28.371Z,5.40
2023-03-26T10:03:26.410Z,5.95
2023-03-26T10:06:11.923Z,5.60
2023-03-26T10:08:50.404Z,5.53
2023-03-26T10:11:38.110Z,5.68
2023-03-26T10:14:29.430Z,3.65
2023-03-26T10:17:21.715Z,5.10
2023-03-26T10:19:52.320Z,4.47
2023-03-26T10:22:27.335Z,3.53
2023-03-26T10:25:12.831Z,3.55
2023-03-26T10:27:46.146Z,4.53
2023-03-26T10:33:02.904Z,3.53
2023-03-26T10:35:39.794Z,3.90
2023-03-26T10:38:18.317Z,3.45
2023-03-26T10:40:58.477Z,3.28
2023-03-26T10:44:07.486Z,3.60
2023-03-26T10:46:52.581Z,4.00
2023-03-26T10:49:25.809Z,3.15
2023-03-26T10:54:47.405Z,3.08
2023-03-26T10:57:23.312Z,3.33
2023-03-26T10:59:53.997Z,3.53
2023-03-26T11:02:29.597Z,3.45
2023-03-26T11:05:07.064Z,4.47
2023-03-26T11:07:44.028Z,3.50
2023-03-26T11:10:16.880Z,3.17
2023-03-26T11:12:55.735Z,3.70
2023-03-26T11:15:31.337Z,3.00
2023-03-26T11:17:58.419Z,4.70
2023-03-26T11:20:44.176Z,4.22
2023-03-26T11:23:36.127Z,3.72
2023-03-26T11:26:06.306Z,3.38
2023-03-26T11:29:03.077Z,3.30
2023-03-26T11:31:32.001Z,4.25
2023-03-26T11:34:06.269Z,3.38
2023-03-26T11:36:39.589Z,4.05
2023-03-26T11:39:13.897Z,3.95
2023-03-26T11:41:41.287Z,3.35
2023-03-26T11:44:28.235Z,3.45
2023-03-26T11:47:01.192Z,3.88
2023-03-26T11:49:29.497Z,3.13
2023-03-26T11:51:56.711Z,3.30
2023-03-26T11:54:23.810Z,3.15
2023-03-26T11:57:05.805Z,2.95
2023-03-26T11:59:57.132Z,3.30
2023-03-26T12:02:38.597Z,3.20
2023-03-26T12:05:29.440Z,3.42
2023-03-26T12:08:00.426Z,3.45
2023-03-26T12:10:35.058Z,3.17
2023-03-26T12:13:26.506Z,3.05
2023-03-26T12:15:59.387Z,3.88
2023-03-26T12:18:28.258Z,3.63
2023-03-26T12:21:10.601Z,2.90
2023-03-26T12:23:45.486Z,2.75
2023-03-26T12:26:18.766Z,3.60
2023-03-26T12:31:19.681Z,3.40
2023-03-26T12:34:16.707Z,4.18
2023-03-26T12:36:59.999Z,3.03
2023-03-26T12:40:08.087Z,3.20
2023-03-26T12:44:51.383Z,2.78
2023-03-26T12:45:14.398Z,3.38
2023-03-26T12:47:57.825Z,4.20
2023-03-26T12:50:57.609Z,2.75
2023-03-26T12:53:37.601Z,3.40
2023-03-26T12:56:27.205Z,3.08
2023-03-26T12:59:18.604Z,2.80
2023-03-26T13:02:13.996Z,3.13
2023-03-26T13:05:07.071Z,2.25
2023-03-26T13:07:48.737Z,2.83
2023-03-26T13:10:37.129Z,2.53
2023-03-26T13:13:10.004Z,2.33
2023-03-26T13:15:43.302Z,2.70
2023-03-26T13:18:48.950Z,2.65
2023-03-26T13:21:37.927Z,2.38
2023-03-26T13:24:22.958Z,2.30
2023-03-26T13:27:04.257Z,3.58
2023-03-26T13:29:49.832Z,2.15
2023-03-26T13:32:22.867Z,2.17
2023-03-26T13:35:17.818Z,2.20
2023-03-26T13:38:00.979Z,2.63
2023-03-26T13:41:14.507Z,2.08
2023-03-26T13:43:58.000Z,2.20
2023-03-26T13:46:48.858Z,2.50
2023-03-26T13:49:29.282Z,2.65
2023-03-26T13:52:01.754Z,2.70
2023-03-26T13:54:35.827Z,2.30
2023-03-26T13:57:31.832Z,3.20
2023-03-26T14:00:22.091Z,2.10
2023-03-26T14:02:57.416Z,2.33
2023-03-26T14:05:33.363Z,1.90
2023-03-26T14:08:04.364Z,2.05
2023-03-26T14:10:42.995Z,2.58
2023-03-26T14:13:15.626Z,2.60
2023-03-26T14:16:21.066Z,2.40
2023-03-26T14:18:56.176Z,2.33
2023-03-26T14:22:02.063Z,2.40
2023-03-26T14:25:04.541Z,2.30
2023-03-26T14:27:40.525Z,1.98
2023-03-26T14:30:28.190Z,1.75
2023-03-26T14:33:11.308Z,3.05
2023-03-26T14:36:07.095Z,1.60
2023-03-26T14:38:52.176Z,1.50
2023-03-26T14:41:28.926Z,1.25
2023-03-26T14:44:24.000Z,1.50
2023-03-26T14:47:01.673Z,1.38
2023-03-26T14:50:03.405Z,1.30
2023-03-26T14:52:50.893Z,1.23
2023-03-26T14:55:30.114Z,1.30
2023-03-26T14:58:08.075Z,1.50
2023-03-26T15:01:04.056Z,1.20
2023-03-26T15:03:48.851Z,1.33
2023-03-26T15:06:34.142Z,2.70
2023-03-26T15:09:26.351Z,1.65
2023-03-26T15:12:21.167Z,1.30
2023-03-26T15:15:13.182Z,1.33
2023-03-26T15:17:49.445Z,1.38
2023-03-26T15:21:00.290Z,1.10
2023-03-26T15:23:58.566Z,1.38
2023-03-26T15:26:44.150Z,1.73
2023-03-26T15:29:40.247Z,1.58
2023-03-26T15:32:30.068Z,1.50
2023-03-26T15:35:34.680Z,1.73
2023-03-26T15:38:10.608Z,1.35
2023-03-26T15:40:44.705Z,1.80
2023-03-26T15:43:11.828Z,1.88
2023-03-26T15:45:49.733Z,1.20
2023-03-26T15:48:25.829Z,1.20
2023-03-26T15:50:54.441Z,1.45
2023-03-26T15:53:48.935Z,1.65
2023-03-26T15:56:40.293Z,1.48
2023-03-26T15:59:38.199Z,1.88
2023-03-26T16:02:38.964Z,1.80
2023-03-26T16:05:44.744Z,1.45
2023-03-26T16:08:38.761Z,1.50
2023-03-26T16:11:12.466Z,1.58
2023-03-26T16:13:39.906Z,1.48
2023-03-26T16:16:19.882Z,1.58
2023-03-26T16:18:58.469Z,1.30
2023-03-26T16:21:32.820Z,1.42
2023-03-26T16:24:03.063Z,1.75
2023-03-26T16:26:48.791Z,1.60
2023-03-26T16:29:26.794Z,8.35
2023-03-26T16:32:15.795Z,10.57
2023-03-26T16:34:57.951Z,7.60
2023-03-26T16:37:50.571Z,5.53
2023-03-26T16:40:17.820Z,2.90
2023-03-26T16:43:11.725Z,2.20
2023-03-26T16:45:49.149Z,2.33
2023-03-26T16:48:51.341Z,2.28
2023-03-26T16:51:31.902Z,3.38
2023-03-26T16:54:23.251Z,2.85
2023-03-26T16:57:16.173Z,2.95
2023-03-26T17:00:06.187Z,2.72
2023-03-26T17:03:16.003Z,3.25
2023-03-26T17:05:58.041Z,3.35
2023-03-26T17:08:43.396Z,2.70
2023-03-26T17:11:36.717Z,2.88
2023-03-26T17:14:24.858Z,3.47
2023-03-26T17:17:22.530Z,3.63
2023-03-26T17:20:19.163Z,3.95
2023-03-26T17:22:51.697Z,5.75
2023-03-26T17:26:02.935Z,5.28
2023-03-26T17:28:50.522Z,5.28
2023-03-26T17:31:40.139Z,6.40
2023-03-26T17:34:33.172Z,6.43
2023-03-26T17:37:03.161Z,7.15
2023-03-26T17:39:50.420Z,7.50
2023-03-26T17:42:27.413Z,8.85
2023-03-26T17:44:59.220Z,7.35
2023-03-26T17:47:26.383Z,4.05
2023-03-26T17:50:20.206Z,3.70
2023-03-26T17:53:01.235Z,2.88
2023-03-26T17:55:31.635Z,3.47
2023-03-26T17:58:03.451Z,2.88
2023-03-26T18:00:41.301Z,3.53
2023-03-26T18:03:08.398Z,3.88
2023-03-26T18:05:39.402Z,3.60
2023-03-26T18:08:41.391Z,4.72
2023-03-26T18:11:36.970Z,4.00
2023-03-26T18:14:29.762Z,4.57
2023-03-26T18:16:59.866Z,3.00
2023-03-26T18:19:27.537Z,3.35
2023-03-26T18:21:58.943Z,3.42
2023-03-26T18:24:37.444Z,3.40
2023-03-26T18:27:08.481Z,2.83
2023-03-26T18:29:37.831Z,4.30
2023-03-26T18:32:11.307Z,3.95
2023-03-26T18:34:46.625Z,3.97
2023-03-26T18:37:19.567Z,3.97
2023-03-26T18:39:59.061Z,3.13
2023-03-26T18:42:28.350Z,4.55
2023-03-26T18:44:59.930Z,2.88
2023-03-26T18:47:31.046Z,2.63
2023-03-26T18:49:59.065Z,3.10
2023-03-26T18:52:29.829Z,3.22
2023-03-26T18:54:59.049Z,3.90
2023-03-26T18:57:28.401Z,3.00
2023-03-26T19:00:08.820Z,3.00
2023-03-26T19:02:36.629Z,3.67
2023-03-26T19:05:04.172Z,3.35
2023-03-26T19:07:31.615Z,3.85
2023-03-26T19:10:00.348Z,3.50
2023-03-26T19:12:33.123Z,3.28
2023-03-26T19:15:17.254Z,3.10
2023-03-26T19:17:47.763Z,3.20
2023-03-26T19:20:27.712Z,3.88
2023-03-26T19:22:56.861Z,4.13
2023-03-26T19:25:31.355Z,4.35
2023-03-26T19:27:59.214Z,3.35
2023-03-26T19:30:32.782Z,3.75
2023-03-26T19:35:42.396Z,3.70
2023-03-26T19:38:29.994Z,4.82
2023-03-26T19:40:58.100Z,4.32
2023-03-26T19:43:26.234Z,3.83
2023-03-26T19:46:00.029Z,3.92
2023-03-26T19:48:46.665Z,5.15
2023-03-26T19:51:37.122Z,5.50
2023-03-26T19:54:14.614Z,4.22
2023-03-26T19:56:43.421Z,5.15
2023-03-26T19:59:10.664Z,5.40
2023-03-26T20:01:37.855Z,4.93
2023-03-26T20:04:06.609Z,5.50
2023-03-26T20:06:43.237Z,4.88
2023-03-26T20:09:14.275Z,5.03
2023-03-26T20:11:42.088Z,4.70
2023-03-26T20:14:15.169Z,4.25
2023-03-26T20:16:44.931Z,5.45
2023-03-26T20:19:14.718Z,5.60
2023-03-26T20:21:43.005Z,6.25
2023-03-26T20:24:18.102Z,6.93
2023-03-26T20:26:46.493Z,5.90
2023-03-26T20:29:14.527Z,6.32
2023-03-26T20:31:42.584Z,6.53
2023-03-26T20:34:16.636Z,6.68
2023-03-26T20:36:45.518Z,6.50
2023-03-26T20:39:13.278Z,6.72
2023-03-26T20:41:45.007Z,7.28
2023-03-26T20:44:15.613Z,7.10
2023-03-26T20:46:43.938Z,6.78
2023-03-26T20:49:12.235Z,5.95
2023-03-26T20:51:41.736Z,6.25
2023-03-26T20:54:17.764Z,6.07
2023-03-26T20:56:45.656Z,6.72
2023-03-26T20:59:18.831Z,6.18
2023-03-26T21:01:47.378Z,6.90
2023-03-26T21:04:16.086Z,5.85
2023-03-26T21:06:43.620Z,6.32
2023-03-26T21:09:15.043Z,5.80
2023-03-26T21:12:02.098Z,5.32
2023-03-26T21:14:40.227Z,7.20
2023-03-26T21:17:14.621Z,6.57
2023-03-26T21:19:42.654Z,6.32
2023-03-26T21:22:22.574Z,6.80
2023-03-26T21:24:58.064Z,6.13
2023-03-26T21:27:37.800Z,7.03
2023-03-26T21:30:16.229Z,7.00
2023-03-26T21:32:45.370Z,6.13
2023-03-26T21:35:14.936Z,5.28
2023-03-26T21:37:44.355Z,6.18
2023-03-26T21:40:14.571Z,6.15
2023-03-26T21:42:43.246Z,6.53
2023-03-26T21:45:11.262Z,5.57
2023-03-26T21:47:38.802Z,5.88
2023-03-26T21:50:07.753Z,6.57
2023-03-26T21:52:35.841Z,6.50
2023-03-26T21:55:05.257Z,5.43
2023-03-26T21:57:43.567Z,5.68
2023-03-26T22:00:23.731Z,5.30
2023-03-26T22:03:14.829Z,5.43
2023-03-26T22:06:02.707Z,5.50
2023-03-26T22:08:35.670Z,5.65
2023-03-26T22:11:02.819Z,6.00
2023-03-26T22:13:30.986Z,5.68
2023-03-26T22:15:58.187Z,5.97
2023-03-26T22:18:26.022Z,6.53
2023-03-26T22:20:53.292Z,5.85
2023-03-26T22:23:20.822Z,5.32
2023-03-26T22:25:47.955Z,6.70
2023-03-26T22:28:15.657Z,6.43
2023-03-26T22:30:42.777Z,6.00
2023-03-26T22:33:11.079Z,6.72
2023-03-26T22:35:39.014Z,6.82
2023-03-26T22:38:06.822Z,7.20
2023-03-26T22:40:33.925Z,8.52
2023-03-26T22:43:01.062Z,7.68
2023-03-26T22:45:28.139Z,8.68
2023-03-26T22:48:03.811Z,7.55
2023-03-26T22:50:32.514Z,8.38
2023-03-26T22:52:59.778Z,7.32
2023-03-26T22:55:28.968Z,7.20
2023-03-26T22:57:57.335Z,8.05
2023-03-26T23:00:26.382Z,8.27
2023-03-26T23:02:55.965Z,8.75
2023-03-26T23:05:23.675Z,9.13
2023-03-26T23:07:52.203Z,8.30
2023-03-26T23:10:19.281Z,8.93
2023-03-26T23:12:46.578Z,8.85
2023-03-26T23:15:14.060Z,8.43
2023-03-26T23:17:41.309Z,8.38
2023-03-26T23:20:14.510Z,6.97
2023-03-26T23:22:42.930Z,8.55
2023-03-26T23:25:11.627Z,8.18
2023-03-26T23:27:40.202Z,8.45
2023-03-26T23:30:08.152Z,8.55
2023-03-26T23:32:37.755Z,8.75
2023-03-26T23:35:06.031Z,10.13
2023-03-26T23:37:35.095Z,9.93
2023-03-26T23:40:07.370Z,10.18
2023-03-26T23:42:34.606Z,10.25
2023-03-26T23:45:01.950Z,10.05
2023-03-26T23:47:34.295Z,10.50
2023-03-26T23:50:02.644Z,10.07
2023-03-26T23:52:30.820Z,9.00
2023-03-26T23:55:00.764Z,9.35
2023-03-26T23:57:27.886Z,9.73
2023-03-26T23:59:55.560Z,8.88
